createdAt,value
2023-02-28T00:00:08.810Z,849.73
2023-02-28T00:01:08.795Z,849.72
2023-02-28T00:02:08.906Z,849.69
2023-02-28T00:03:08.839Z,849.68
2023-02-28T00:04:08.788Z,849.65
2023-02-28T00:05:08.767Z,849.65
2023-02-28T00:06:08.769Z,849.61
2023-02-28T00:07:08.739Z,849.61
2023-02-28T00:08:08.739Z,849.61
2023-02-28T00:09:08.729Z,849.62
2023-02-28T00:10:08.716Z,849.57
2023-02-28T00:11:08.738Z,849.63
2023-02-28T00:12:08.688Z,849.63
2023-02-28T00:13:08.673Z,849.68
2023-02-28T00:14:08.668Z,849.67
2023-02-28T00:15:08.651Z,849.71
2023-02-28T00:16:08.644Z,849.64
2023-02-28T00:17:08.657Z,849.72
2023-02-28T00:18:08.623Z,849.73
2023-02-28T00:19:08.613Z,849.74
2023-02-28T00:20:08.624Z,849.70
2023-02-28T00:21:08.603Z,849.73
2023-02-28T00:22:08.582Z,849.75
2023-02-28T00:23:08.583Z,849.72
2023-02-28T00:24:08.560Z,849.78
2023-02-28T00:25:08.558Z,849.81
2023-02-28T00:26:08.541Z,849.81
2023-02-28T00:27:08.536Z,849.81
2023-02-28T00:28:08.518Z,849.77
2023-02-28T00:29:08.539Z,849.80
2023-02-28T00:30:08.497Z,849.78
2023-02-28T00:31:08.622Z,849.80
2023-02-28T00:32:08.518Z,849.76
2023-02-28T00:33:08.464Z,849.79
2023-02-28T00:34:08.462Z,849.75
2023-02-28T00:35:08.480Z,849.75
2023-02-28T00:36:08.544Z,849.79
2023-02-28T00:37:08.415Z,849.76
2023-02-28T00:38:08.408Z,849.77
2023-02-28T00:39:08.402Z,849.76
2023-02-28T00:40:08.395Z,849.72
2023-02-28T00:41:08.472Z,849.69
2023-02-28T00:42:08.362Z,849.72
2023-02-28T00:43:08.359Z,849.69
2023-02-28T00:44:08.344Z,849.68
2023-02-28T00:45:08.328Z,849.68
2023-02-28T00:46:08.377Z,849.69
2023-02-28T00:47:08.328Z,849.67
2023-02-28T00:48:08.318Z,849.69
2023-02-28T00:49:08.283Z,849.66
2023-02-28T00:50:08.288Z,849.66
2023-02-28T00:51:08.273Z,849.65
2023-02-28T00:52:08.288Z,849.72
2023-02-28T00:53:08.253Z,849.72
2023-02-28T00:54:08.249Z,849.76
2023-02-28T00:55:08.224Z,849.81
2023-02-28T00:56:08.212Z,849.75
2023-02-28T00:57:08.201Z,849.82
2023-02-28T00:58:08.210Z,849.80
2023-02-28T00:59:08.189Z,849.83
2023-02-28T01:00:08.180Z,849.84
2023-02-28T01:01:08.217Z,849.84
2023-02-28T01:02:08.147Z,849.77
2023-02-28T01:03:08.138Z,849.80
2023-02-28T01:04:08.216Z,849.77
2023-02-28T01:05:08.123Z,849.80
2023-02-28T01:06:08.120Z,849.78
2023-02-28T01:07:08.093Z,849.72
2023-02-28T01:08:08.109Z,849.79
2023-02-28T01:09:08.076Z,849.78
2023-02-28T01:10:08.062Z,849.74
2023-02-28T01:11:08.068Z,849.76
2023-02-28T01:12:08.049Z,849.72
2023-02-28T01:13:08.032Z,849.73
2023-02-28T01:14:08.037Z,849.72
2023-02-28T01:15:08.013Z,849.77
2023-02-28T01:16:08.079Z,849.78
2023-02-28T01:17:08.002Z,849.82
2023-02-28T01:18:07.990Z,849.83
2023-02-28T01:19:07.986Z,849.80
2023-02-28T01:20:07.962Z,849.83
2023-02-28T01:21:07.945Z,849.84
2023-02-28T01:22:07.935Z,849.77
2023-02-28T01:23:07.940Z,849.77
2023-02-28T01:24:07.968Z,849.85
2023-02-28T01:25:08.012Z,849.77
2023-02-28T01:26:07.905Z,849.76
2023-02-28T01:27:07.878Z,849.76
2023-02-28T01:28:07.875Z,849.75
2023-02-28T01:29:07.874Z,849.78
2023-02-28T01:30:07.860Z,849.81
2023-02-28T01:31:07.958Z,849.77
2023-02-28T01:32:07.905Z,849.82
2023-02-28T01:33:07.821Z,849.86
2023-02-28T01:34:07.820Z,849.83
2023-02-28T01:35:07.810Z,849.82
2023-02-28T01:36:07.835Z,849.85
2023-02-28T01:37:07.770Z,849.88
2023-02-28T01:38:21.179Z,849.85
2023-02-28T01:39:08.776Z,849.88
2023-02-28T01:40:07.762Z,849.84
2023-02-28T01:41:07.731Z,849.84
2023-02-28T01:42:07.731Z,849.82
2023-02-28T01:43:07.710Z,849.79
2023-02-28T01:44:07.718Z,849.82
2023-02-28T01:45:07.681Z,849.83
2023-02-28T01:46:07.742Z,849.78
2023-02-28T01:47:07.686Z,849.80
2023-02-28T01:48:07.651Z,849.79
2023-02-28T01:49:07.646Z,849.76
2023-02-28T01:50:07.626Z,849.79
2023-02-28T01:51:07.615Z,849.73
2023-02-28T01:52:07.619Z,849.72
2023-02-28T01:53:07.610Z,849.69
2023-02-28T01:54:07.587Z,849.71
2023-02-28T01:55:07.573Z,849.68
2023-02-28T01:56:07.600Z,849.66
2023-02-28T01:57:07.550Z,849.61
2023-02-28T01:58:07.543Z,849.64
2023-02-28T01:59:07.537Z,849.63
2023-02-28T02:00:07.532Z,849.65
2023-02-28T02:01:07.507Z,849.64
2023-02-28T02:02:07.543Z,849.61
2023-02-28T02:03:07.622Z,849.56
2023-02-28T02:04:07.478Z,849.59
2023-02-28T02:05:07.476Z,849.58
2023-02-28T02:06:07.474Z,849.58
2023-02-28T02:07:07.458Z,849.52
2023-02-28T02:08:07.436Z,849.47
2023-02-28T02:09:07.419Z,849.47
2023-02-28T02:10:07.414Z,849.44
2023-02-28T02:11:07.411Z,849.46
2023-02-28T02:12:07.414Z,849.43
2023-02-28T02:13:07.396Z,849.49
2023-02-28T02:14:07.365Z,849.47
2023-02-28T02:15:07.375Z,849.44
2023-02-28T02:16:07.368Z,849.43
2023-02-28T02:17:07.368Z,849.53
2023-02-28T02:18:07.331Z,849.43
2023-02-28T02:19:07.313Z,849.48
2023-02-28T02:20:07.298Z,849.54
2023-02-28T02:21:07.293Z,849.52
2023-02-28T02:22:07.281Z,849.56
2023-02-28T02:23:07.292Z,849.54
2023-02-28T02:24:07.266Z,849.53
2023-02-28T02:25:07.256Z,849.56
2023-02-28T02:26:07.237Z,849.54
2023-02-28T02:27:07.236Z,849.52
2023-02-28T02:28:07.249Z,849.51
2023-02-28T02:29:07.220Z,849.55
2023-02-28T02:30:07.191Z,849.57
2023-02-28T02:31:07.238Z,849.58
2023-02-28T02:32:07.207Z,849.58
2023-02-28T02:33:07.195Z,849.53
2023-02-28T02:34:07.165Z,849.55
2023-02-28T02:35:07.165Z,849.51
2023-02-28T02:36:07.128Z,849.52
2023-02-28T02:37:07.146Z,849.51
2023-02-28T02:38:07.109Z,849.50
2023-02-28T02:39:07.106Z,849.50
2023-02-28T02:40:07.084Z,849.47
2023-02-28T02:41:07.097Z,849.47
2023-02-28T02:42:07.063Z,849.44
2023-02-28T02:43:07.064Z,849.42
2023-02-28T02:44:07.061Z,849.50
2023-02-28T02:45:07.048Z,849.48
2023-02-28T02:46:07.019Z,849.50
2023-02-28T02:47:07.037Z,849.55
2023-02-28T02:48:07.002Z,849.53
2023-02-28T02:49:06.997Z,849.47
2023-02-28T02:50:06.998Z,849.48
2023-02-28T02:51:07.001Z,849.46
2023-02-28T02:52:06.960Z,849.44
2023-02-28T02:53:06.976Z,849.37
2023-02-28T02:54:06.946Z,849.45
2023-02-28T02:55:06.931Z,849.46
2023-02-28T02:56:06.928Z,849.44
2023-02-28T02:57:06.929Z,849.45
2023-02-28T02:58:06.908Z,849.44
2023-02-28T02:59:06.909Z,849.47
2023-02-28T03:00:06.901Z,849.46
2023-02-28T03:01:06.904Z,849.46
2023-02-28T03:02:06.851Z,849.44
2023-02-28T03:03:06.854Z,849.51
2023-02-28T03:04:06.929Z,849.48
2023-02-28T03:05:06.831Z,849.47
2023-02-28T03:06:06.810Z,849.46
2023-02-28T03:07:06.801Z,849.51
2023-02-28T03:08:06.783Z,849.52
2023-02-28T03:09:06.790Z,849.51
2023-02-28T03:10:06.765Z,849.48
2023-02-28T03:11:06.765Z,849.50
2023-02-28T03:12:06.741Z,849.47
2023-02-28T03:13:06.736Z,849.49
2023-02-28T03:14:06.736Z,849.51
2023-02-28T03:15:06.717Z,849.53
2023-02-28T03:16:06.790Z,849.51
2023-02-28T03:17:06.697Z,849.52
2023-02-28T03:18:06.678Z,849.53
2023-02-28T03:19:06.674Z,849.56
2023-02-28T03:20:08.362Z,849.60
2023-02-28T03:21:06.666Z,849.55
2023-02-28T03:22:06.644Z,849.63
2023-02-28T03:23:06.648Z,849.63
2023-02-28T03:24:06.622Z,849.59
2023-02-28T03:25:06.621Z,849.61
2023-02-28T03:26:06.596Z,849.58
2023-02-28T03:27:14.109Z,849.59
2023-02-28T03:28:14.118Z,849.57
2023-02-28T03:29:14.098Z,849.54
2023-02-28T03:30:14.075Z,849.53
2023-02-28T03:31:14.114Z,849.54
2023-02-28T03:32:14.160Z,849.51
2023-02-28T03:33:14.064Z,849.53
2023-02-28T03:34:14.032Z,849.56
2023-02-28T03:35:14.032Z,849.52
2023-02-28T03:36:14.010Z,849.56
2023-02-28T03:37:06.511Z,849.60
2023-02-28T03:38:06.483Z,849.59
2023-02-28T03:39:06.477Z,849.58
2023-02-28T03:40:06.462Z,849.63
2023-02-28T03:41:06.456Z,849.62
2023-02-28T03:42:06.431Z,849.67
2023-02-28T03:43:06.422Z,849.70
2023-02-28T03:44:06.445Z,849.74
2023-02-28T03:45:06.404Z,849.77
2023-02-28T03:46:06.435Z,849.68
2023-02-28T03:47:06.408Z,849.70
2023-02-28T03:48:06.368Z,849.76
2023-02-28T03:49:06.376Z,849.70
2023-02-28T03:50:06.359Z,849.77
2023-02-28T03:51:06.342Z,849.80
2023-02-28T03:52:06.327Z,849.78
2023-02-28T03:53:06.323Z,849.80
2023-02-28T03:54:06.315Z,849.77
2023-02-28T03:55:06.313Z,849.76
2023-02-28T03:56:06.288Z,849.79
2023-02-28T03:57:06.289Z,849.83
2023-02-28T03:58:06.260Z,849.76
2023-02-28T03:59:06.264Z,849.78
2023-02-28T04:00:06.240Z,849.82
2023-02-28T04:01:06.254Z,849.77
2023-02-28T04:02:06.280Z,849.82
2023-02-28T04:03:06.233Z,849.82
2023-02-28T04:04:06.252Z,849.83
2023-02-28T04:05:06.188Z,849.91
2023-02-28T04:06:06.173Z,849.85
2023-02-28T04:07:06.198Z,849.91
2023-02-28T04:08:06.154Z,849.88
2023-02-28T04:09:06.147Z,849.94
2023-02-28T04:10:06.136Z,849.90
2023-02-28T04:11:06.135Z,849.97
2023-02-28T04:12:06.114Z,849.99
2023-02-28T04:13:06.115Z,850.02
2023-02-28T04:14:06.096Z,850.00
2023-02-28T04:15:06.082Z,850.03
2023-02-28T04:16:06.131Z,849.98
2023-02-28T04:17:06.076Z,850.06
2023-02-28T04:18:06.047Z,850.05
2023-02-28T04:19:06.248Z,850.04
2023-02-28T04:20:06.027Z,850.05
2023-02-28T04:21:06.018Z,850.09
2023-02-28T04:22:06.011Z,849.97
2023-02-28T04:23:06.008Z,850.02
2023-02-28T04:24:05.990Z,849.96
2023-02-28T04:25:06.002Z,849.92
2023-02-28T04:26:05.964Z,849.95
2023-02-28T04:27:05.953Z,849.94
2023-02-28T04:28:05.939Z,849.93
2023-02-28T04:29:05.951Z,849.93
2023-02-28T04:30:05.916Z,849.96
2023-02-28T04:31:05.936Z,849.95
2023-02-28T04:32:06.062Z,849.94
2023-02-28T04:33:05.896Z,849.94
2023-02-28T04:34:05.894Z,849.93
2023-02-28T04:35:05.887Z,849.97
2023-02-28T04:36:05.864Z,849.97
2023-02-28T04:37:13.272Z,849.95
2023-02-28T04:38:06.832Z,849.99
2023-02-28T04:39:05.821Z,849.96
2023-02-28T04:40:05.814Z,849.95
2023-02-28T04:41:05.802Z,849.95
2023-02-28T04:42:05.817Z,850.03
2023-02-28T04:43:05.790Z,849.95
2023-02-28T04:44:05.777Z,849.95
2023-02-28T04:45:05.765Z,849.93
2023-02-28T04:46:05.788Z,849.93
2023-02-28T04:47:05.740Z,849.98
2023-02-28T04:48:05.751Z,849.96
2023-02-28T04:49:05.714Z,849.95
2023-02-28T04:50:05.731Z,849.94
2023-02-28T04:51:05.718Z,849.90
2023-02-28T04:52:05.680Z,849.92
2023-02-28T04:53:05.672Z,849.92
2023-02-28T04:54:05.678Z,849.96
2023-02-28T04:55:05.651Z,849.92
2023-02-28T04:56:05.654Z,849.95
2023-02-28T04:57:05.628Z,849.93
2023-02-28T04:58:05.614Z,849.97
2023-02-28T04:59:05.614Z,850.01
2023-02-28T05:00:05.605Z,850.03
2023-02-28T05:01:05.592Z,850.01
2023-02-28T05:02:05.669Z,850.02
2023-02-28T05:03:05.562Z,850.00
2023-02-28T05:04:05.567Z,850.02
2023-02-28T05:05:05.573Z,850.00
2023-02-28T05:06:05.530Z,850.01
2023-02-28T05:07:05.576Z,850.04
2023-02-28T05:08:05.516Z,850.07
2023-02-28T05:09:05.499Z,850.08
2023-02-28T05:10:06.569Z,850.06
2023-02-28T05:11:05.493Z,850.07
2023-02-28T05:12:05.465Z,850.05
2023-02-28T05:13:05.456Z,850.04
2023-02-28T05:14:05.462Z,850.04
2023-02-28T05:15:05.437Z,850.05
2023-02-28T05:16:05.482Z,850.04
2023-02-28T05:17:05.434Z,850.09
2023-02-28T05:18:05.400Z,850.06
2023-02-28T05:19:05.476Z,850.14
2023-02-28T05:20:15.047Z,850.14
2023-02-28T05:21:06.371Z,850.14
2023-02-28T05:22:05.356Z,850.14
2023-02-28T05:23:05.389Z,850.13
2023-02-28T05:24:05.333Z,850.12
2023-02-28T05:25:05.333Z,850.13
2023-02-28T05:26:05.333Z,850.13
2023-02-28T05:27:05.312Z,850.09
2023-02-28T05:28:05.303Z,850.14
2023-02-28T05:29:05.290Z,850.18
2023-02-28T05:30:05.273Z,850.16
2023-02-28T05:31:05.274Z,850.17
2023-02-28T05:32:05.378Z,850.12
2023-02-28T05:33:05.253Z,850.18
2023-02-28T05:34:05.392Z,850.17
2023-02-28T05:35:05.221Z,850.13
2023-02-28T05:36:05.282Z,850.13
2023-02-28T05:37:05.202Z,850.16
2023-02-28T05:38:05.200Z,850.16
2023-02-28T05:39:05.215Z,850.15
2023-02-28T05:40:05.229Z,850.15
2023-02-28T05:41:05.170Z,850.11
2023-02-28T05:42:05.149Z,850.16
2023-02-28T05:43:05.153Z,850.10
2023-02-28T05:44:05.129Z,850.11
2023-02-28T05:45:05.126Z,850.11
2023-02-28T05:46:05.148Z,850.08
2023-02-28T05:47:05.109Z,850.06
2023-02-28T05:48:05.083Z,850.06
2023-02-28T05:49:05.221Z,850.11
2023-02-28T05:50:05.066Z,850.10
2023-02-28T05:51:05.068Z,850.10
2023-02-28T05:52:05.057Z,850.16
2023-02-28T05:53:05.139Z,850.14
2023-02-28T05:54:05.021Z,850.14
2023-02-28T05:55:05.030Z,850.14
2023-02-28T05:56:05.022Z,850.19
2023-02-28T05:57:12.588Z,850.17
2023-02-28T05:58:05.993Z,850.20
2023-02-28T05:59:04.971Z,850.17
2023-02-28T06:00:04.972Z,850.18
2023-02-28T06:01:04.958Z,850.15
2023-02-28T06:02:04.992Z,850.14
2023-02-28T06:03:05.004Z,850.17
2023-02-28T06:04:04.922Z,850.14
2023-02-28T06:05:04.931Z,850.18
2023-02-28T06:06:04.909Z,850.18
2023-02-28T06:07:04.902Z,850.22
2023-02-28T06:08:04.885Z,850.25
2023-02-28T06:09:04.882Z,850.25
2023-02-28T06:10:04.860Z,850.26
2023-02-28T06:11:04.868Z,850.20
2023-02-28T06:12:04.943Z,850.22
2023-02-28T06:13:04.825Z,850.25
2023-02-28T06:17:14.861Z,850.30
2023-02-28T06:50:00.908Z,850.54
2023-02-28T07:03:15.096Z,850.66
2023-02-28T07:04:15.129Z,850.68
2023-02-28T07:05:15.062Z,850.69
2023-02-28T07:06:15.054Z,850.75
2023-02-28T07:07:15.031Z,850.68
2023-02-28T07:08:15.016Z,850.70
2023-02-28T07:09:15.040Z,850.75
2023-02-28T07:10:14.997Z,850.74
2023-02-28T07:11:14.974Z,850.74
2023-02-28T07:12:14.979Z,850.78
2023-02-28T07:13:14.957Z,850.78
2023-02-28T07:14:14.949Z,850.79
2023-02-28T07:15:14.952Z,850.81
2023-02-28T07:16:14.977Z,850.82
2023-02-28T07:17:14.913Z,850.83
2023-02-28T07:18:14.904Z,850.86
2023-02-28T07:19:14.895Z,850.83
2023-02-28T07:20:14.882Z,850.87
2023-02-28T07:21:14.901Z,850.88
2023-02-28T07:22:15.928Z,850.86
2023-02-28T07:23:14.862Z,850.85
2023-02-28T07:24:14.842Z,850.88
2023-02-28T07:25:14.828Z,850.90
2023-02-28T07:26:14.821Z,850.88
2023-02-28T07:27:14.817Z,850.93
2023-02-28T07:28:14.799Z,850.95
2023-02-28T07:29:14.792Z,850.99
2023-02-28T07:30:14.774Z,850.95
2023-02-28T07:31:14.819Z,850.94
2023-02-28T07:32:14.825Z,850.93
2023-02-28T07:33:14.770Z,850.91
2023-02-28T07:34:14.744Z,850.92
2023-02-28T07:35:14.727Z,850.87
2023-02-28T07:36:14.718Z,850.85
2023-02-28T07:37:14.730Z,850.84
2023-02-28T07:38:14.812Z,850.88
2023-02-28T07:39:14.728Z,850.86
2023-02-28T07:40:14.684Z,850.85
2023-02-28T07:41:14.657Z,850.87
2023-02-28T07:42:14.709Z,850.88
2023-02-28T07:43:14.645Z,850.87
2023-02-28T07:44:15.164Z,850.88
2023-02-28T07:45:14.629Z,850.85
2023-02-28T07:46:14.615Z,850.88
2023-02-28T07:47:14.640Z,850.83
2023-02-28T07:48:14.593Z,850.84
2023-02-28T07:49:14.581Z,850.86
2023-02-28T07:50:14.579Z,850.90
2023-02-28T07:51:14.557Z,850.85
2023-02-28T07:52:14.575Z,850.85
2023-02-28T07:53:14.591Z,850.77
2023-02-28T07:54:15.530Z,850.82
2023-02-28T07:55:14.526Z,850.85
2023-02-28T07:56:14.520Z,850.90
2023-02-28T07:57:14.502Z,850.85
2023-02-28T07:58:14.508Z,850.83
2023-02-28T07:59:14.515Z,850.85
2023-02-28T08:00:14.634Z,850.85
2023-02-28T08:01:14.467Z,850.86
2023-02-28T08:02:14.498Z,850.90
2023-02-28T08:03:14.433Z,850.87
2023-02-28T08:04:14.431Z,850.95
2023-02-28T08:05:14.453Z,850.93
2023-02-28T08:06:14.404Z,850.90
2023-02-28T08:07:14.408Z,850.93
2023-02-28T08:08:14.399Z,850.85
2023-02-28T08:09:14.398Z,850.93
2023-02-28T08:10:14.490Z,850.91
2023-02-28T08:11:14.402Z,850.88
2023-02-28T08:12:14.356Z,850.93
2023-02-28T08:13:14.386Z,850.89
2023-02-28T08:14:14.350Z,850.87
2023-02-28T08:15:14.308Z,850.85
2023-02-28T08:16:14.330Z,850.89
2023-02-28T08:17:14.282Z,850.92
2023-02-28T08:18:14.285Z,850.91
2023-02-28T08:19:14.305Z,850.93
2023-02-28T08:20:14.308Z,850.93
2023-02-28T08:21:14.241Z,850.98
2023-02-28T08:22:14.243Z,850.93
2023-02-28T08:23:14.336Z,850.94
2023-02-28T08:24:14.206Z,850.93
2023-02-28T08:25:14.249Z,850.97
2023-02-28T08:26:14.283Z,850.94
2023-02-28T08:27:14.177Z,850.93
2023-02-28T08:28:14.164Z,850.95
2023-02-28T08:29:14.151Z,850.95
2023-02-28T08:30:14.152Z,850.94
2023-02-28T08:31:14.207Z,850.91
2023-02-28T08:32:27.460Z,850.93
2023-02-28T08:33:15.107Z,850.92
2023-02-28T08:34:14.110Z,850.92
2023-02-28T08:35:14.092Z,850.95
2023-02-28T08:36:14.104Z,850.89
2023-02-28T08:37:14.162Z,850.91
2023-02-28T08:38:14.063Z,850.91
2023-02-28T08:39:14.044Z,850.97
2023-02-28T08:40:14.727Z,850.90
2023-02-28T08:41:14.033Z,850.97
2023-02-28T08:42:14.021Z,850.95
2023-02-28T08:43:14.054Z,850.96
2023-02-28T08:44:13.994Z,850.99
2023-02-28T08:45:13.977Z,851.01
2023-02-28T08:46:14.023Z,850.97
2023-02-28T08:47:13.951Z,851.00
2023-02-28T08:48:13.944Z,851.02
2023-02-28T08:49:13.981Z,851.04
2023-02-28T08:50:13.927Z,851.03
2023-02-28T08:51:13.911Z,851.05
2023-02-28T08:52:13.919Z,851.06
2023-02-28T08:53:13.890Z,851.05
2023-02-28T08:54:13.893Z,851.07
2023-02-28T08:55:13.907Z,851.04
2023-02-28T08:56:13.902Z,851.10
2023-02-28T08:57:13.866Z,851.04
2023-02-28T08:58:13.846Z,851.06
2023-02-28T08:59:13.817Z,851.11
2023-02-28T09:00:13.840Z,851.10
2023-02-28T09:01:13.904Z,851.11
2023-02-28T09:02:13.816Z,851.14
2023-02-28T09:03:13.772Z,851.17
2023-02-28T09:04:15.836Z,851.10
2023-02-28T09:05:13.759Z,851.14
2023-02-28T09:06:13.753Z,851.15
2023-02-28T09:07:13.765Z,851.14
2023-02-28T09:08:13.769Z,851.12
2023-02-28T09:09:13.723Z,851.16
2023-02-28T09:10:13.715Z,851.18
2023-02-28T09:11:13.686Z,851.17
2023-02-28T09:12:13.680Z,851.17
2023-02-28T09:13:13.686Z,851.17
2023-02-28T09:14:13.694Z,851.17
2023-02-28T09:15:13.644Z,851.22
2023-02-28T09:16:13.774Z,851.19
2023-02-28T09:17:13.638Z,851.19
2023-02-28T09:18:13.630Z,851.18
2023-02-28T09:19:13.629Z,851.23
2023-02-28T09:20:13.633Z,851.26
2023-02-28T09:21:13.579Z,851.26
2023-02-28T09:22:13.577Z,851.23
2023-02-28T09:23:13.558Z,851.23
2023-02-28T09:24:13.560Z,851.25
2023-02-28T09:25:13.535Z,851.25
2023-02-28T09:26:13.593Z,851.26
2023-02-28T09:27:13.516Z,851.27
2023-02-28T09:28:13.513Z,851.28
2023-02-28T09:29:13.536Z,851.26
2023-02-28T09:30:13.500Z,851.30
2023-02-28T09:31:13.558Z,851.32
2023-02-28T09:32:13.579Z,851.32
2023-02-28T09:33:13.469Z,851.31
2023-02-28T09:34:13.502Z,851.28
2023-02-28T09:35:13.429Z,851.29
2023-02-28T09:36:13.507Z,851.28
2023-02-28T09:37:13.407Z,851.26
2023-02-28T09:38:13.431Z,851.30
2023-02-28T09:39:13.558Z,851.33
2023-02-28T09:40:13.420Z,851.31
2023-02-28T09:41:13.365Z,851.29
2023-02-28T09:42:13.361Z,851.29
2023-02-28T09:43:13.344Z,851.29
2023-02-28T09:44:13.385Z,851.28
2023-02-28T09:45:13.345Z,851.30
2023-02-28T09:46:13.342Z,851.33
2023-02-28T09:47:13.304Z,851.35
2023-02-28T09:48:13.292Z,851.31
2023-02-28T09:49:13.283Z,851.27
2023-02-28T09:50:13.303Z,851.30
2023-02-28T09:51:13.266Z,851.33
2023-02-28T09:52:13.251Z,851.36
2023-02-28T09:53:13.254Z,851.28
2023-02-28T09:54:13.228Z,851.25
2023-02-28T09:55:13.216Z,851.21
2023-02-28T09:56:13.265Z,851.21
2023-02-28T09:57:13.190Z,851.25
2023-02-28T09:58:13.193Z,851.25
2023-02-28T09:59:13.170Z,851.25
2023-02-28T10:00:13.161Z,851.25
2023-02-28T10:01:13.281Z,851.28
2023-02-28T10:02:13.210Z,851.27
2023-02-28T10:03:13.126Z,851.27
2023-02-28T10:04:13.161Z,851.28
2023-02-28T10:05:13.106Z,851.31
2023-02-28T10:06:13.101Z,851.31
2023-02-28T10:07:13.095Z,851.28
2023-02-28T10:08:13.138Z,851.30
2023-02-28T10:09:13.061Z,851.29
2023-02-28T10:10:13.056Z,851.28
2023-02-28T10:11:13.045Z,851.28
2023-02-28T10:12:13.035Z,851.25
2023-02-28T10:13:13.032Z,851.31
2023-02-28T10:14:13.073Z,851.32
2023-02-28T10:15:13.003Z,851.25
2023-02-28T10:16:13.111Z,851.31
2023-02-28T10:17:13.005Z,851.33
2023-02-28T10:18:13.795Z,851.31
2023-02-28T10:19:12.952Z,851.30
2023-02-28T10:20:12.972Z,851.31
2023-02-28T10:21:12.942Z,851.41
2023-02-28T10:22:12.918Z,851.39
2023-02-28T10:23:12.910Z,851.38
2023-02-28T10:25:12.897Z,851.35
2023-02-28T10:26:12.889Z,851.37
2023-02-28T10:27:12.894Z,851.35
2023-02-28T10:28:12.875Z,851.37
2023-02-28T10:29:12.855Z,851.37
2023-02-28T10:30:12.849Z,851.35
2023-02-28T10:31:12.839Z,851.33
2023-02-28T10:32:12.851Z,851.36
2023-02-28T10:33:12.951Z,851.37
2023-02-28T10:34:12.801Z,851.37
2023-02-28T10:35:12.781Z,851.37
2023-02-28T10:36:12.806Z,851.40
2023-02-28T10:37:12.757Z,851.39
2023-02-28T10:38:12.748Z,851.42
2023-02-28T10:39:12.747Z,851.43
2023-02-28T10:40:12.776Z,851.42
2023-02-28T10:41:12.724Z,851.43
2023-02-28T10:42:12.709Z,851.42
2023-02-28T10:43:12.690Z,851.43
2023-02-28T10:44:12.682Z,851.49
2023-02-28T10:45:12.689Z,851.42
2023-02-28T10:46:12.719Z,851.43
2023-02-28T10:47:12.656Z,851.41
2023-02-28T10:48:12.678Z,851.45
2023-02-28T10:49:12.651Z,851.48
2023-02-28T10:50:12.630Z,851.40
2023-02-28T10:51:12.626Z,851.43
2023-02-28T10:52:12.634Z,851.43
2023-02-28T10:53:12.583Z,851.45
2023-02-28T10:54:12.624Z,851.46
2023-02-28T10:55:12.564Z,851.45
2023-02-28T10:56:12.567Z,851.41
2023-02-28T10:57:12.540Z,851.44
2023-02-28T10:58:12.531Z,851.42
2023-02-28T10:59:12.584Z,851.36
2023-02-28T11:00:12.510Z,851.35
2023-02-28T11:01:12.512Z,851.37
2023-02-28T11:02:12.494Z,851.37
2023-02-28T11:03:12.490Z,851.36
2023-02-28T11:04:12.476Z,851.37
2023-02-28T11:05:20.059Z,851.37
2023-02-28T11:06:12.460Z,851.36
2023-02-28T11:07:12.428Z,851.36
2023-02-28T11:08:12.428Z,851.32
2023-02-28T11:09:12.412Z,851.34
2023-02-28T11:10:21.003Z,851.30
2023-02-28T11:11:12.380Z,851.30
2023-02-28T11:12:12.412Z,851.30
2023-02-28T11:13:12.363Z,851.29
2023-02-28T11:14:12.353Z,851.27
2023-02-28T11:15:12.343Z,851.30
2023-02-28T11:16:12.405Z,851.27
2023-02-28T11:17:12.316Z,851.31
2023-02-28T11:18:12.350Z,851.28
2023-02-28T11:19:12.294Z,851.31
2023-02-28T11:20:12.289Z,851.36
2023-02-28T11:21:12.334Z,851.26
2023-02-28T11:22:12.262Z,851.28
2023-02-28T11:23:12.253Z,851.27
2023-02-28T11:24:12.250Z,851.28
2023-02-28T11:25:12.234Z,851.26
2023-02-28T11:26:12.315Z,851.21
2023-02-28T11:27:12.230Z,851.21
2023-02-28T11:28:12.194Z,851.23
2023-02-28T11:29:12.189Z,851.22
2023-02-28T11:30:12.183Z,851.23
2023-02-28T11:31:12.205Z,851.19
2023-02-28T11:32:19.746Z,851.19
2023-02-28T11:33:19.663Z,851.20
2023-02-28T11:34:12.132Z,851.18
2023-02-28T11:35:19.658Z,851.19
2023-02-28T11:36:12.168Z,851.19
2023-02-28T11:37:19.645Z,851.23
2023-02-28T11:38:12.095Z,851.19
2023-02-28T11:39:12.075Z,851.15
2023-02-28T11:40:12.059Z,851.14
2023-02-28T11:41:12.072Z,851.14
2023-02-28T11:42:12.043Z,851.10
2023-02-28T11:43:12.057Z,851.10
2023-02-28T11:44:12.048Z,851.08
2023-02-28T11:45:12.006Z,851.09
2023-02-28T11:46:12.010Z,851.13
2023-02-28T11:47:12.050Z,851.15
2023-02-28T11:48:11.974Z,851.12
2023-02-28T11:49:11.985Z,851.12
2023-02-28T11:50:11.962Z,851.12
2023-02-28T11:51:11.943Z,851.08
2023-02-28T11:52:11.958Z,851.06
2023-02-28T11:53:11.959Z,851.08
2023-02-28T11:54:11.912Z,851.05
2023-02-28T11:55:11.908Z,851.02
2023-02-28T11:56:11.898Z,851.04
2023-02-28T11:57:11.881Z,850.99
2023-02-28T11:58:11.873Z,851.06
2023-02-28T11:59:11.901Z,851.05
2023-02-28T12:00:11.846Z,851.01
2023-02-28T12:01:11.903Z,851.06
2023-02-28T12:02:12.350Z,851.05
2023-02-28T12:03:11.843Z,851.06
2023-02-28T12:04:11.828Z,851.01
2023-02-28T12:05:11.815Z,851.02
2023-02-28T12:06:11.785Z,851.02
2023-02-28T12:07:11.774Z,850.95
2023-02-28T12:08:11.761Z,850.94
2023-02-28T12:09:11.875Z,850.94
2023-02-28T12:10:11.773Z,850.89
2023-02-28T12:11:11.744Z,850.92
2023-02-28T12:12:11.728Z,850.95
2023-02-28T12:13:11.779Z,850.91
2023-02-28T12:14:11.697Z,850.97
2023-02-28T12:15:11.706Z,850.93
2023-02-28T12:16:11.724Z,850.91
2023-02-28T12:17:11.714Z,850.97
2023-02-28T12:18:11.686Z,850.94
2023-02-28T12:19:11.651Z,850.94
2023-02-28T12:20:11.637Z,850.92
2023-02-28T12:21:11.656Z,850.93
2023-02-28T12:22:11.626Z,850.89
2023-02-28T12:23:11.644Z,850.91
2023-02-28T12:24:11.589Z,850.91
2023-02-28T12:25:11.619Z,850.92
2023-02-28T12:26:11.586Z,850.88
2023-02-28T12:27:11.570Z,850.82
2023-02-28T12:28:11.546Z,850.86
2023-02-28T12:29:11.581Z,850.89
2023-02-28T12:30:11.522Z,850.89
2023-02-28T12:31:11.537Z,850.83
2023-02-28T12:32:11.595Z,850.84
2023-02-28T12:33:11.493Z,850.79
2023-02-28T12:34:11.482Z,850.81
2023-02-28T12:35:11.504Z,850.78
2023-02-28T12:36:11.487Z,850.74
2023-02-28T12:37:11.459Z,850.76
2023-02-28T12:38:11.463Z,850.73
2023-02-28T12:39:11.435Z,850.73
2023-02-28T12:40:11.441Z,850.73
2023-02-28T12:41:11.454Z,850.76
2023-02-28T12:42:11.406Z,850.74
2023-02-28T12:43:11.396Z,850.76
2023-02-28T12:44:11.370Z,850.70
2023-02-28T12:45:11.514Z,850.74
2023-02-28T12:46:11.611Z,850.72
2023-02-28T12:47:11.361Z,850.71
2023-02-28T12:48:11.319Z,850.71
2023-02-28T12:49:11.334Z,850.71
2023-02-28T12:50:11.308Z,850.71
2023-02-28T12:51:11.303Z,850.66
2023-02-28T12:52:11.290Z,850.73
2023-02-28T12:53:11.348Z,850.68
2023-02-28T12:54:11.260Z,850.67
2023-02-28T12:55:11.250Z,850.65
2023-02-28T12:56:11.249Z,850.64
2023-02-28T12:57:11.296Z,850.66
2023-02-28T12:58:11.211Z,850.66
2023-02-28T12:59:11.242Z,850.69
2023-02-28T13:00:11.205Z,850.63
2023-02-28T13:01:11.244Z,850.64
2023-02-28T13:02:11.179Z,850.63
2023-02-28T13:03:11.176Z,850.62
2023-02-28T13:04:11.158Z,850.59
2023-02-28T13:05:11.172Z,850.64
2023-02-28T13:06:11.127Z,850.55
2023-02-28T13:07:11.121Z,850.57
2023-02-28T13:08:11.102Z,850.54
2023-02-28T13:09:11.110Z,850.59
2023-02-28T13:10:11.121Z,850.59
2023-02-28T13:11:19.922Z,850.55
2023-02-28T13:12:12.063Z,850.56
2023-02-28T13:13:11.079Z,850.55
2023-02-28T13:14:11.046Z,850.51
2023-02-28T13:15:11.025Z,850.58
2023-02-28T13:16:11.010Z,850.55